EWG5GY EDDH-HEMA
Flight info
| Callsign | EWG5GY |
|---|---|
| Flight time | 4h 36m |
| Altitude | 37000 |
| Route | AMLUH2G AMLUH M852 DENIX DCT ZUCKA DCT TABAT DCT AKOSI DCT SIMBA DCT DOL DCT UNIPA DCT VAKSU DCT DIMIS DCT SALUN N705 BOPIX N710 TAKRI P751 LXR M999 ELELI V730 MAK |
| Aircraft | A20N/M-SDE2E3FGHIRWXY/LB1 |
Departure
| Time | 2026-04-17 11:24 |
|---|---|
| Airport | Hamburg Helmut Schmidt Airport (EDDH) |
Arrival
| Time | 2026-04-17 16:01 |
|---|---|
| Airport | Marsa Alam International Airport (HEMA) |
| Time | Latitude | Longitude | Altitude | Speed | Heading |
|---|---|---|---|---|---|
| 2026-04-17 10:49 | 53.63005 | 10.00357 | 48 ft | 0 kts | 123° |
| 2026-04-17 11:11 | 53.63015 | 10.00333 | 45 ft | 4 kts | 123° |
| 2026-04-17 11:11 | 53.63030 | 10.00295 | 44 ft | 4 kts | 123° |
| 2026-04-17 11:12 | 53.63044 | 10.00257 | 46 ft | 4 kts | 123° |
| 2026-04-17 11:12 | 53.63060 | 10.00221 | 46 ft | 4 kts | 139° |
| 2026-04-17 11:12 | 53.63082 | 10.00198 | 47 ft | 4 kts | 167° |
| 2026-04-17 11:12 | 53.63098 | 10.00194 | 47 ft | 1 kts | 176° |
| 2026-04-17 11:18 | 53.63097 | 10.00194 | 48 ft | 0 kts | 176° |
| 2026-04-17 11:19 | 53.63094 | 10.00194 | 48 ft | 0 kts | 176° |
| 2026-04-17 11:21 | 53.63091 | 10.00194 | 48 ft | 1 kts | 179° |
| 2026-04-17 11:21 | 53.63074 | 10.00186 | 47 ft | 4 kts | 200° |
| 2026-04-17 11:21 | 53.63044 | 10.00158 | 47 ft | 6 kts | 212° |
| 2026-04-17 11:22 | 53.63001 | 10.00112 | 48 ft | 8 kts | 212° |
| 2026-04-17 11:22 | 53.62947 | 10.00052 | 48 ft | 10 kts | 217° |
| 2026-04-17 11:22 | 53.62905 | 9.99944 | 45 ft | 12 kts | 243° |
| 2026-04-17 11:22 | 53.62866 | 9.99793 | 42 ft | 15 kts | 266° |
| 2026-04-17 11:23 | 53.62930 | 9.99691 | 45 ft | 0 kts | 332° |
| 2026-04-17 11:23 | 53.62946 | 9.99677 | 45 ft | 19 kts | 332° |
| 2026-04-17 11:23 | 53.63289 | 9.99379 | 46 ft | 90 kts | 333° |
| 2026-04-17 11:23 | 53.64030 | 9.98742 | 50 ft | 146 kts | 333° |
| 2026-04-17 11:24 | 53.65047 | 9.97873 | 278 ft | 169 kts | 334° |
| 2026-04-17 11:24 | 53.66073 | 9.96997 | 1011 ft | 164 kts | 334° |
| 2026-04-17 11:24 | 53.67074 | 9.96134 | 1714 ft | 163 kts | 334° |
| 2026-04-17 11:24 | 53.68141 | 9.95242 | 2186 ft | 180 kts | 339° |
| 2026-04-17 11:25 | 53.69410 | 9.94683 | 2622 ft | 199 kts | 355° |
| 2026-04-17 11:25 | 53.70861 | 9.94662 | 2996 ft | 219 kts | 1° |
| 2026-04-17 11:25 | 53.72410 | 9.94803 | 3599 ft | 227 kts | 13° |
| 2026-04-17 11:25 | 53.73797 | 9.96074 | 4302 ft | 230 kts | 48° |
| 2026-04-17 11:26 | 53.74561 | 9.98406 | 5041 ft | 230 kts | 81° |
| 2026-04-17 11:26 | 53.74603 | 10.01118 | 5715 ft | 232 kts | 97° |
| 2026-04-17 11:26 | 53.74233 | 10.03756 | 6429 ft | 232 kts | 116° |
| 2026-04-17 11:26 | 53.73440 | 10.06127 | 7093 ft | 235 kts | 126° |
| 2026-04-17 11:27 | 53.72536 | 10.08568 | 7466 ft | 254 kts | 123° |
| 2026-04-17 11:27 | 53.71604 | 10.11238 | 7821 ft | 274 kts | 122° |
| 2026-04-17 11:27 | 53.70642 | 10.14092 | 8462 ft | 282 kts | 121° |
| 2026-04-17 11:27 | 53.69677 | 10.16993 | 9275 ft | 285 kts | 121° |
| 2026-04-17 11:28 | 53.68492 | 10.19657 | 10066 ft | 286 kts | 141° |
| 2026-04-17 11:28 | 53.66787 | 10.21333 | 10598 ft | 296 kts | 162° |
| 2026-04-17 11:28 | 53.64731 | 10.22331 | 10805 ft | 318 kts | 166° |
| 2026-04-17 11:28 | 53.62522 | 10.23307 | 11098 ft | 335 kts | 167° |
| 2026-04-17 11:29 | 53.60243 | 10.24311 | 11745 ft | 340 kts | 167° |
| 2026-04-17 11:29 | 53.57934 | 10.25343 | 12433 ft | 345 kts | 166° |
| 2026-04-17 11:29 | 53.55605 | 10.26400 | 13121 ft | 349 kts | 166° |
| 2026-04-17 11:29 | 53.53238 | 10.27483 | 13739 ft | 355 kts | 167° |
| 2026-04-17 11:30 | 53.50840 | 10.28585 | 14380 ft | 359 kts | 167° |
| 2026-04-17 11:30 | 53.48420 | 10.29695 | 14966 ft | 363 kts | 167° |
| 2026-04-17 11:30 | 53.45968 | 10.30817 | 15567 ft | 367 kts | 167° |
| 2026-04-17 11:30 | 53.43518 | 10.31937 | 16132 ft | 371 kts | 167° |
| 2026-04-17 11:31 | 53.41012 | 10.33078 | 16731 ft | 375 kts | 167° |
| 2026-04-17 11:31 | 53.38481 | 10.34220 | 17329 ft | 378 kts | 167° |
| 2026-04-17 11:31 | 53.35916 | 10.35374 | 17914 ft | 382 kts | 167° |
| 2026-04-17 11:31 | 53.33334 | 10.36535 | 18492 ft | 386 kts | 167° |
| 2026-04-17 11:32 | 53.30729 | 10.37705 | 18986 ft | 389 kts | 168° |
| 2026-04-17 11:32 | 53.28094 | 10.38887 | 19461 ft | 394 kts | 167° |
| 2026-04-17 11:32 | 53.25429 | 10.40080 | 19881 ft | 399 kts | 167° |
| 2026-04-17 11:32 | 53.22774 | 10.41267 | 20361 ft | 402 kts | 167° |
| 2026-04-17 11:33 | 53.20055 | 10.42482 | 20852 ft | 405 kts | 167° |
| 2026-04-17 11:33 | 53.17319 | 10.43703 | 21322 ft | 409 kts | 167° |
| 2026-04-17 11:33 | 53.14554 | 10.44934 | 21784 ft | 413 kts | 167° |
| 2026-04-17 11:33 | 53.11754 | 10.46052 | 22263 ft | 414 kts | 172° |
| 2026-04-17 11:34 | 53.08898 | 10.46937 | 22715 ft | 418 kts | 172° |
| 2026-04-17 11:34 | 53.06022 | 10.47827 | 23164 ft | 422 kts | 172° |
| 2026-04-17 11:34 | 53.03157 | 10.48716 | 23617 ft | 425 kts | 172° |
| 2026-04-17 11:34 | 53.00238 | 10.49623 | 24023 ft | 429 kts | 172° |
| 2026-04-17 11:35 | 52.97260 | 10.50548 | 24420 ft | 431 kts | 172° |
| 2026-04-17 11:35 | 52.94341 | 10.51454 | 24801 ft | 434 kts | 172° |
| 2026-04-17 11:35 | 52.91369 | 10.52376 | 25167 ft | 437 kts | 172° |
| 2026-04-17 11:35 | 52.88368 | 10.53304 | 25535 ft | 439 kts | 172° |
| 2026-04-17 11:36 | 52.85354 | 10.54235 | 25884 ft | 442 kts | 173° |
| 2026-04-17 11:36 | 52.82320 | 10.55171 | 26245 ft | 445 kts | 173° |
| 2026-04-17 11:36 | 52.79269 | 10.56111 | 26591 ft | 447 kts | 173° |
| 2026-04-17 11:36 | 52.76204 | 10.57054 | 26930 ft | 450 kts | 173° |
| 2026-04-17 11:37 | 52.73114 | 10.58003 | 27263 ft | 452 kts | 173° |
| 2026-04-17 11:37 | 52.70012 | 10.58954 | 27584 ft | 455 kts | 173° |
| 2026-04-17 11:37 | 52.66881 | 10.59911 | 27785 ft | 461 kts | 173° |
| 2026-04-17 11:37 | 52.63721 | 10.60876 | 28092 ft | 463 kts | 173° |
| 2026-04-17 11:38 | 52.60549 | 10.61845 | 28407 ft | 465 kts | 173° |
| 2026-04-17 11:38 | 52.57353 | 10.62820 | 28698 ft | 467 kts | 173° |
| 2026-04-17 11:38 | 52.54187 | 10.63784 | 28978 ft | 469 kts | 173° |
| 2026-04-17 11:38 | 52.50970 | 10.64761 | 29240 ft | 472 kts | 173° |
| 2026-04-17 11:39 | 52.47733 | 10.65743 | 29514 ft | 474 kts | 173° |
| 2026-04-17 11:39 | 52.44477 | 10.66729 | 29776 ft | 476 kts | 173° |
| 2026-04-17 11:39 | 52.41214 | 10.67716 | 30039 ft | 478 kts | 173° |
| 2026-04-17 11:39 | 52.37936 | 10.68706 | 30300 ft | 480 kts | 173° |
| 2026-04-17 11:40 | 52.34644 | 10.69699 | 30534 ft | 482 kts | 173° |
| 2026-04-17 11:40 | 52.31332 | 10.70697 | 30771 ft | 484 kts | 173° |
| 2026-04-17 11:40 | 52.28015 | 10.71694 | 31011 ft | 486 kts | 173° |
| 2026-04-17 11:40 | 52.24688 | 10.72692 | 31277 ft | 486 kts | 173° |
| 2026-04-17 11:41 | 52.21352 | 10.73693 | 31564 ft | 487 kts | 173° |
| 2026-04-17 11:41 | 52.18015 | 10.74692 | 31876 ft | 486 kts | 173° |
| 2026-04-17 11:41 | 52.14687 | 10.75688 | 32180 ft | 486 kts | 173° |
| 2026-04-17 11:41 | 52.11408 | 10.76667 | 32464 ft | 486 kts | 173° |
| 2026-04-17 11:42 | 52.08082 | 10.77658 | 32766 ft | 485 kts | 173° |
| 2026-04-17 11:42 | 52.04759 | 10.78647 | 33061 ft | 485 kts | 173° |
| 2026-04-17 11:42 | 52.01438 | 10.79633 | 33305 ft | 484 kts | 173° |
| 2026-04-17 11:42 | 51.98118 | 10.80618 | 33597 ft | 484 kts | 173° |
| 2026-04-17 11:43 | 51.94832 | 10.81590 | 33785 ft | 486 kts | 173° |
| 2026-04-17 11:43 | 51.91501 | 10.82574 | 33962 ft | 487 kts | 173° |
| 2026-04-17 11:43 | 51.88167 | 10.83559 | 34224 ft | 487 kts | 173° |
| 2026-04-17 11:43 | 51.84835 | 10.84542 | 34436 ft | 486 kts | 173° |
| 2026-04-17 11:44 | 51.81516 | 10.85519 | 34670 ft | 485 kts | 173° |
| 2026-04-17 11:44 | 51.78190 | 10.86496 | 34895 ft | 485 kts | 173° |
| 2026-04-17 11:44 | 51.74866 | 10.87472 | 35086 ft | 483 kts | 173° |
| 2026-04-17 11:44 | 51.71559 | 10.88441 | 35291 ft | 483 kts | 173° |
| 2026-04-17 11:45 | 51.68263 | 10.89448 | 35467 ft | 484 kts | 169° |
| 2026-04-17 11:45 | 51.65019 | 10.90978 | 35650 ft | 486 kts | 162° |
| 2026-04-17 11:45 | 51.61837 | 10.92846 | 35823 ft | 486 kts | 162° |
| 2026-04-17 11:45 | 51.58664 | 10.94712 | 35992 ft | 485 kts | 162° |
| 2026-04-17 11:46 | 51.55529 | 10.96547 | 36153 ft | 485 kts | 162° |
| 2026-04-17 11:46 | 51.52351 | 10.98398 | 36311 ft | 484 kts | 162° |
| 2026-04-17 11:46 | 51.49185 | 11.00236 | 36492 ft | 483 kts | 162° |
| 2026-04-17 11:46 | 51.46018 | 11.02069 | 36647 ft | 483 kts | 162° |
| 2026-04-17 11:47 | 51.42853 | 11.03897 | 36781 ft | 483 kts | 162° |
| 2026-04-17 11:47 | 51.39692 | 11.05720 | 36936 ft | 482 kts | 162° |
| 2026-04-17 11:47 | 51.36536 | 11.07536 | 37060 ft | 483 kts | 162° |
| 2026-04-17 11:47 | 51.33368 | 11.09356 | 37128 ft | 484 kts | 162° |
| 2026-04-17 11:48 | 51.30201 | 11.11174 | 37232 ft | 484 kts | 162° |
| 2026-04-17 11:48 | 51.27031 | 11.12992 | 37237 ft | 483 kts | 162° |
| 2026-04-17 11:48 | 51.20757 | 11.16583 | 37251 ft | 482 kts | 162° |
| 2026-04-17 11:49 | 51.14427 | 11.20194 | 37247 ft | 482 kts | 162° |
| 2026-04-17 11:49 | 51.08108 | 11.23788 | 37245 ft | 482 kts | 162° |
| 2026-04-17 11:50 | 51.01790 | 11.27371 | 37242 ft | 482 kts | 162° |
| 2026-04-17 11:50 | 50.95494 | 11.30932 | 37255 ft | 482 kts | 162° |
| 2026-04-17 11:51 | 50.89183 | 11.34491 | 37254 ft | 481 kts | 162° |
| 2026-04-17 11:51 | 50.82860 | 11.38045 | 37234 ft | 482 kts | 162° |
| 2026-04-17 11:52 | 50.76540 | 11.41588 | 37225 ft | 482 kts | 162° |
| 2026-04-17 11:52 | 50.70223 | 11.45121 | 37239 ft | 482 kts | 162° |
| 2026-04-17 11:53 | 50.63883 | 11.48655 | 37241 ft | 482 kts | 162° |
| 2026-04-17 11:53 | 50.57585 | 11.52157 | 37244 ft | 482 kts | 162° |
| 2026-04-17 11:54 | 50.51294 | 11.55932 | 37239 ft | 484 kts | 158° |
| 2026-04-17 11:54 | 50.45120 | 11.60157 | 37240 ft | 484 kts | 158° |
| 2026-04-17 11:55 | 50.38961 | 11.64297 | 37234 ft | 485 kts | 158° |
| 2026-04-17 11:55 | 50.32739 | 11.68406 | 37235 ft | 485 kts | 159° |
| 2026-04-17 11:56 | 50.26498 | 11.72506 | 37242 ft | 485 kts | 159° |
| 2026-04-17 11:56 | 50.20272 | 11.76584 | 37246 ft | 486 kts | 159° |
| 2026-04-17 11:57 | 50.14034 | 11.80659 | 37249 ft | 486 kts | 159° |
| 2026-04-17 11:57 | 50.07799 | 11.84721 | 37240 ft | 484 kts | 159° |
| 2026-04-17 11:58 | 50.02636 | 11.88077 | 37231 ft | 484 kts | 159° |
| 2026-04-17 11:58 | 49.96421 | 11.92104 | 37244 ft | 484 kts | 159° |
| 2026-04-17 11:59 | 49.90185 | 11.96134 | 37226 ft | 485 kts | 159° |
| 2026-04-17 11:59 | 49.83954 | 12.00150 | 37225 ft | 485 kts | 159° |
| 2026-04-17 12:00 | 49.77725 | 12.04154 | 37221 ft | 484 kts | 159° |
| 2026-04-17 12:00 | 49.71497 | 12.08146 | 37222 ft | 484 kts | 159° |
| 2026-04-17 12:01 | 49.65325 | 12.12126 | 37217 ft | 484 kts | 159° |
| 2026-04-17 12:01 | 49.59112 | 12.16159 | 37220 ft | 484 kts | 159° |
| 2026-04-17 12:02 | 49.52887 | 12.20185 | 37230 ft | 484 kts | 159° |
| 2026-04-17 12:02 | 49.46681 | 12.24181 | 37232 ft | 484 kts | 159° |
| 2026-04-17 12:03 | 49.40472 | 12.28167 | 37230 ft | 484 kts | 159° |
| 2026-04-17 12:03 | 49.34294 | 12.32122 | 37232 ft | 484 kts | 159° |
| 2026-04-17 12:04 | 49.28074 | 12.36094 | 37232 ft | 484 kts | 159° |
| 2026-04-17 12:04 | 49.21858 | 12.40052 | 37230 ft | 484 kts | 159° |
| 2026-04-17 12:05 | 49.15639 | 12.44001 | 37233 ft | 484 kts | 159° |
| 2026-04-17 12:05 | 49.09402 | 12.47951 | 37229 ft | 485 kts | 159° |
| 2026-04-17 12:06 | 49.03174 | 12.51885 | 37232 ft | 484 kts | 159° |
| 2026-04-17 12:06 | 48.96936 | 12.55814 | 37237 ft | 485 kts | 159° |
| 2026-04-17 12:07 | 48.90741 | 12.59705 | 37234 ft | 485 kts | 159° |
| 2026-04-17 12:07 | 48.84505 | 12.63612 | 37235 ft | 485 kts | 159° |
| 2026-04-17 12:08 | 48.78264 | 12.67511 | 37235 ft | 485 kts | 159° |
| 2026-04-17 12:08 | 48.72026 | 12.71398 | 37235 ft | 485 kts | 159° |
| 2026-04-17 12:09 | 48.65778 | 12.75280 | 37234 ft | 485 kts | 159° |
| 2026-04-17 12:09 | 48.59539 | 12.79147 | 37238 ft | 485 kts | 159° |
| 2026-04-17 12:10 | 48.53314 | 12.82995 | 37231 ft | 481 kts | 159° |
| 2026-04-17 12:10 | 48.47101 | 12.86825 | 37230 ft | 482 kts | 160° |
| 2026-04-17 12:11 | 48.40926 | 12.90621 | 37230 ft | 482 kts | 160° |
| 2026-04-17 12:12 | 48.31617 | 12.96326 | 37232 ft | 480 kts | 160° |
| 2026-04-17 12:12 | 48.25427 | 13.00108 | 37206 ft | 479 kts | 159° |
| 2026-04-17 12:13 | 48.19458 | 13.04584 | 37221 ft | 482 kts | 151° |
| 2026-04-17 12:13 | 48.13626 | 13.09622 | 37225 ft | 485 kts | 151° |
| 2026-04-17 12:14 | 48.07775 | 13.14649 | 37227 ft | 484 kts | 151° |
| 2026-04-17 12:14 | 48.01952 | 13.19625 | 37224 ft | 484 kts | 151° |
| 2026-04-17 12:15 | 47.96095 | 13.24613 | 37221 ft | 484 kts | 151° |
| 2026-04-17 12:15 | 47.90221 | 13.29602 | 37208 ft | 485 kts | 151° |
| 2026-04-17 12:16 | 47.84383 | 13.34548 | 37214 ft | 484 kts | 151° |
| 2026-04-17 12:16 | 47.78519 | 13.39503 | 37218 ft | 484 kts | 151° |
| 2026-04-17 12:17 | 47.72646 | 13.44452 | 37220 ft | 485 kts | 151° |
| 2026-04-17 12:17 | 47.66779 | 13.49385 | 37220 ft | 485 kts | 151° |
| 2026-04-17 12:18 | 47.60905 | 13.54311 | 37209 ft | 484 kts | 151° |
| 2026-04-17 12:18 | 47.55037 | 13.59218 | 37208 ft | 484 kts | 151° |
| 2026-04-17 12:19 | 47.49200 | 13.64081 | 37213 ft | 484 kts | 151° |
| 2026-04-17 12:19 | 47.43330 | 13.68957 | 37212 ft | 483 kts | 151° |
| 2026-04-17 12:20 | 47.37461 | 13.73837 | 37208 ft | 483 kts | 151° |
| 2026-04-17 12:20 | 47.31610 | 13.78681 | 37198 ft | 481 kts | 151° |
| 2026-04-17 12:21 | 47.25746 | 13.83521 | 37204 ft | 485 kts | 151° |
| 2026-04-17 12:21 | 47.19903 | 13.88332 | 37203 ft | 484 kts | 151° |
| 2026-04-17 12:22 | 47.14025 | 13.93160 | 37213 ft | 482 kts | 151° |
| 2026-04-17 12:22 | 47.08165 | 13.97960 | 37206 ft | 482 kts | 151° |
| 2026-04-17 12:23 | 47.02298 | 14.02754 | 37194 ft | 483 kts | 151° |
| 2026-04-17 12:23 | 46.96414 | 14.07550 | 37186 ft | 484 kts | 151° |
| 2026-04-17 12:24 | 46.90565 | 14.12303 | 37189 ft | 482 kts | 151° |
| 2026-04-17 12:24 | 46.84704 | 14.17057 | 37186 ft | 482 kts | 151° |
| 2026-04-17 12:25 | 46.78829 | 14.21810 | 37175 ft | 482 kts | 151° |
| 2026-04-17 12:25 | 46.72955 | 14.26549 | 37175 ft | 482 kts | 151° |
| 2026-04-17 12:26 | 46.67113 | 14.31251 | 37189 ft | 480 kts | 152° |
| 2026-04-17 12:26 | 46.61251 | 14.35956 | 37177 ft | 482 kts | 151° |
| 2026-04-17 12:27 | 46.55376 | 14.40661 | 37177 ft | 482 kts | 151° |
| 2026-04-17 12:27 | 46.49497 | 14.45357 | 37195 ft | 482 kts | 152° |
| 2026-04-17 12:28 | 46.43600 | 14.50055 | 37188 ft | 481 kts | 151° |
| 2026-04-17 12:28 | 46.37736 | 14.54715 | 37162 ft | 480 kts | 151° |
| 2026-04-17 12:29 | 46.31914 | 14.59333 | 37135 ft | 480 kts | 151° |
| 2026-04-17 12:29 | 46.26057 | 14.63965 | 37147 ft | 479 kts | 152° |
| 2026-04-17 12:30 | 46.20184 | 14.68598 | 37153 ft | 480 kts | 151° |
| 2026-04-17 12:30 | 46.14326 | 14.73209 | 37151 ft | 479 kts | 152° |
| 2026-04-17 12:31 | 46.08456 | 14.77824 | 37152 ft | 480 kts | 151° |
| 2026-04-17 12:31 | 46.02731 | 14.82637 | 37170 ft | 480 kts | 148° |
| 2026-04-17 12:32 | 45.97023 | 14.87647 | 37162 ft | 479 kts | 148° |
| 2026-04-17 12:32 | 45.91312 | 14.92593 | 37165 ft | 479 kts | 149° |
| 2026-04-17 12:33 | 45.85590 | 14.97507 | 37154 ft | 479 kts | 149° |
| 2026-04-17 12:33 | 45.79868 | 15.02404 | 37165 ft | 479 kts | 149° |
| 2026-04-17 12:34 | 45.74185 | 15.07256 | 37174 ft | 479 kts | 149° |
| 2026-04-17 12:34 | 45.68455 | 15.12137 | 37169 ft | 480 kts | 149° |
| 2026-04-17 12:35 | 45.62704 | 15.17024 | 37167 ft | 480 kts | 149° |
| 2026-04-17 12:35 | 45.56960 | 15.21894 | 37160 ft | 480 kts | 149° |
| 2026-04-17 12:37 | 45.34061 | 15.41190 | 37150 ft | 478 kts | 149° |
| 2026-04-17 12:38 | 45.28371 | 15.45957 | 37154 ft | 476 kts | 149° |
| 2026-04-17 12:38 | 45.22649 | 15.50739 | 37150 ft | 476 kts | 149° |
| 2026-04-17 12:39 | 45.16937 | 15.55501 | 37160 ft | 476 kts | 149° |
| 2026-04-17 12:39 | 45.11248 | 15.60233 | 37152 ft | 476 kts | 149° |
| 2026-04-17 12:40 | 45.05533 | 15.64975 | 37144 ft | 475 kts | 149° |
| 2026-04-17 12:40 | 44.99848 | 15.69682 | 37130 ft | 473 kts | 149° |
| 2026-04-17 12:41 | 44.94166 | 15.74375 | 37116 ft | 471 kts | 149° |
| 2026-04-17 12:41 | 44.88472 | 15.79068 | 37134 ft | 476 kts | 149° |
| 2026-04-17 12:42 | 44.82786 | 15.83742 | 37137 ft | 474 kts | 149° |
| 2026-04-17 12:42 | 44.77081 | 15.88422 | 37129 ft | 475 kts | 149° |
| 2026-04-17 12:43 | 44.71378 | 15.93089 | 37124 ft | 474 kts | 149° |
| 2026-04-17 12:43 | 44.65664 | 15.97754 | 37126 ft | 474 kts | 150° |
| 2026-04-17 12:44 | 44.59961 | 16.02400 | 37120 ft | 472 kts | 149° |
| 2026-04-17 12:44 | 44.54311 | 16.06993 | 37099 ft | 471 kts | 150° |
| 2026-04-17 12:45 | 44.48646 | 16.11587 | 37084 ft | 469 kts | 150° |
| 2026-04-17 12:45 | 44.42965 | 16.16184 | 37112 ft | 474 kts | 150° |
| 2026-04-17 12:46 | 44.37265 | 16.20785 | 37096 ft | 472 kts | 150° |
| 2026-04-17 12:46 | 44.32532 | 16.24598 | 37099 ft | 473 kts | 150° |
| 2026-04-17 12:47 | 44.26830 | 16.29183 | 37088 ft | 473 kts | 150° |
| 2026-04-17 12:47 | 44.21123 | 16.33759 | 37096 ft | 473 kts | 150° |
| 2026-04-17 12:48 | 44.15418 | 16.38325 | 37088 ft | 472 kts | 150° |
| 2026-04-17 12:48 | 44.09758 | 16.42845 | 37079 ft | 472 kts | 150° |
| 2026-04-17 12:49 | 44.04068 | 16.47387 | 37078 ft | 471 kts | 149° |
| 2026-04-17 12:49 | 43.98731 | 16.52676 | 37066 ft | 471 kts | 142° |
| 2026-04-17 12:50 | 43.93516 | 16.58210 | 37059 ft | 470 kts | 142° |
| 2026-04-17 12:50 | 43.88310 | 16.63704 | 37057 ft | 470 kts | 142° |
| 2026-04-17 12:51 | 43.83127 | 16.69151 | 37049 ft | 470 kts | 142° |
| 2026-04-17 12:51 | 43.77912 | 16.74614 | 37045 ft | 470 kts | 142° |
| 2026-04-17 12:52 | 43.72678 | 16.80086 | 37046 ft | 470 kts | 142° |
| 2026-04-17 12:52 | 43.67487 | 16.85501 | 37049 ft | 470 kts | 142° |
| 2026-04-17 12:53 | 43.62240 | 16.90963 | 37050 ft | 470 kts | 142° |
| 2026-04-17 12:53 | 43.57048 | 16.96355 | 37043 ft | 470 kts | 142° |
| 2026-04-17 12:54 | 43.51812 | 17.01781 | 37043 ft | 470 kts | 142° |
| 2026-04-17 12:54 | 43.46574 | 17.07196 | 37031 ft | 471 kts | 142° |
| 2026-04-17 12:55 | 43.41329 | 17.12607 | 37030 ft | 471 kts | 142° |
| 2026-04-17 12:55 | 43.36077 | 17.18013 | 37025 ft | 471 kts | 142° |
| 2026-04-17 12:56 | 43.30823 | 17.23410 | 37038 ft | 471 kts | 142° |
| 2026-04-17 12:56 | 43.25603 | 17.28758 | 37022 ft | 469 kts | 142° |
| 2026-04-17 12:57 | 43.20365 | 17.34114 | 37010 ft | 470 kts | 142° |
| 2026-04-17 12:57 | 43.15115 | 17.39471 | 37009 ft | 469 kts | 142° |
| 2026-04-17 12:58 | 43.09854 | 17.44828 | 37000 ft | 471 kts | 142° |
| 2026-04-17 12:58 | 43.04604 | 17.50160 | 36992 ft | 469 kts | 142° |
| 2026-04-17 12:59 | 42.99372 | 17.55463 | 36993 ft | 468 kts | 142° |
| 2026-04-17 12:59 | 42.94169 | 17.60726 | 36986 ft | 469 kts | 142° |
| 2026-04-17 13:00 | 42.88929 | 17.66015 | 36984 ft | 468 kts | 142° |
| 2026-04-17 13:00 | 42.83676 | 17.71305 | 36986 ft | 469 kts | 142° |
| 2026-04-17 13:01 | 42.78422 | 17.76584 | 36976 ft | 469 kts | 142° |
| 2026-04-17 13:01 | 42.73171 | 17.81850 | 36967 ft | 468 kts | 142° |
| 2026-04-17 13:02 | 42.67949 | 17.87075 | 36978 ft | 468 kts | 142° |
| 2026-04-17 13:02 | 42.62702 | 17.92314 | 36959 ft | 467 kts | 142° |
| 2026-04-17 13:03 | 42.57459 | 17.97537 | 36970 ft | 467 kts | 142° |
| 2026-04-17 13:03 | 42.52225 | 18.02741 | 36960 ft | 466 kts | 142° |
| 2026-04-17 13:04 | 42.46995 | 18.07930 | 36963 ft | 466 kts | 142° |
| 2026-04-17 13:04 | 42.41760 | 18.13112 | 36957 ft | 465 kts | 142° |
| 2026-04-17 13:05 | 42.36528 | 18.18281 | 36945 ft | 465 kts | 142° |
| 2026-04-17 13:05 | 42.31334 | 18.23401 | 36956 ft | 465 kts | 142° |
| 2026-04-17 13:06 | 42.26101 | 18.28549 | 36954 ft | 464 kts | 142° |
| 2026-04-17 13:06 | 42.20873 | 18.33682 | 36956 ft | 464 kts | 142° |
| 2026-04-17 13:07 | 42.15641 | 18.38808 | 36946 ft | 464 kts | 142° |
| 2026-04-17 13:07 | 42.10417 | 18.43914 | 36957 ft | 464 kts | 143° |
| 2026-04-17 13:08 | 42.05222 | 18.48985 | 36958 ft | 464 kts | 143° |
| 2026-04-17 13:08 | 42.00011 | 18.54093 | 36960 ft | 463 kts | 141° |
| 2026-04-17 13:09 | 41.95034 | 18.59601 | 36955 ft | 462 kts | 139° |
| 2026-04-17 13:09 | 41.90100 | 18.65162 | 36957 ft | 462 kts | 139° |
| 2026-04-17 13:10 | 41.85144 | 18.70653 | 36959 ft | 462 kts | 139° |
| 2026-04-17 13:10 | 41.80178 | 18.76112 | 36952 ft | 461 kts | 140° |
| 2026-04-17 13:11 | 41.75245 | 18.81523 | 36950 ft | 461 kts | 140° |
| 2026-04-17 13:11 | 41.70280 | 18.86957 | 36945 ft | 460 kts | 140° |
| 2026-04-17 13:12 | 41.65308 | 18.92387 | 36938 ft | 460 kts | 140° |
| 2026-04-17 13:12 | 41.57868 | 19.00494 | 36909 ft | 460 kts | 140° |
| 2026-04-17 13:13 | 41.52899 | 19.05893 | 36932 ft | 461 kts | 140° |
| 2026-04-17 13:13 | 41.47943 | 19.11267 | 36929 ft | 464 kts | 140° |
| 2026-04-17 13:14 | 41.42928 | 19.16696 | 36909 ft | 463 kts | 140° |
| 2026-04-17 13:14 | 41.37943 | 19.22079 | 36909 ft | 460 kts | 140° |
| 2026-04-17 13:15 | 41.32983 | 19.27425 | 36915 ft | 458 kts | 140° |
| 2026-04-17 13:15 | 41.28028 | 19.32755 | 36900 ft | 460 kts | 140° |
| 2026-04-17 13:16 | 41.23048 | 19.38102 | 36895 ft | 460 kts | 140° |
| 2026-04-17 13:16 | 41.18064 | 19.43441 | 36889 ft | 465 kts | 140° |
| 2026-04-17 13:17 | 41.13078 | 19.48773 | 36888 ft | 456 kts | 140° |
| 2026-04-17 13:17 | 41.08119 | 19.54064 | 36877 ft | 456 kts | 140° |
| 2026-04-17 13:18 | 41.03162 | 19.59343 | 36876 ft | 458 kts | 140° |
| 2026-04-17 13:18 | 40.98181 | 19.64636 | 36880 ft | 457 kts | 140° |
| 2026-04-17 13:19 | 40.93192 | 19.69927 | 36868 ft | 460 kts | 140° |
| 2026-04-17 13:19 | 40.88209 | 19.75203 | 36864 ft | 458 kts | 140° |
| 2026-04-17 13:20 | 40.83246 | 19.80446 | 36878 ft | 457 kts | 141° |
| 2026-04-17 13:20 | 40.78301 | 19.85661 | 36871 ft | 452 kts | 141° |
| 2026-04-17 13:21 | 40.73353 | 19.90866 | 36872 ft | 457 kts | 141° |
| 2026-04-17 13:21 | 40.68421 | 19.96045 | 36876 ft | 456 kts | 141° |
| 2026-04-17 13:22 | 40.63427 | 20.01280 | 36875 ft | 457 kts | 141° |
| 2026-04-17 13:22 | 40.58452 | 20.06485 | 36877 ft | 455 kts | 141° |
| 2026-04-17 13:23 | 40.53484 | 20.11671 | 36885 ft | 455 kts | 141° |
| 2026-04-17 13:23 | 40.48559 | 20.16806 | 36885 ft | 452 kts | 141° |
| 2026-04-17 13:24 | 40.43600 | 20.21964 | 36898 ft | 454 kts | 141° |
| 2026-04-17 13:24 | 40.38629 | 20.27125 | 36899 ft | 458 kts | 142° |
| 2026-04-17 13:25 | 40.33638 | 20.32297 | 36888 ft | 452 kts | 142° |
| 2026-04-17 13:25 | 40.28732 | 20.37370 | 36898 ft | 454 kts | 142° |
| 2026-04-17 13:26 | 40.23773 | 20.42487 | 36893 ft | 451 kts | 142° |
| 2026-04-17 13:26 | 40.18824 | 20.47586 | 36905 ft | 454 kts | 142° |
| 2026-04-17 13:27 | 40.13891 | 20.52661 | 36892 ft | 449 kts | 142° |
| 2026-04-17 13:27 | 40.08962 | 20.57697 | 36891 ft | 448 kts | 144° |
| 2026-04-17 13:28 | 40.03711 | 20.61972 | 36898 ft | 448 kts | 153° |
| 2026-04-17 13:28 | 39.98198 | 20.65756 | 36895 ft | 447 kts | 153° |
| 2026-04-17 13:29 | 39.92701 | 20.69564 | 36887 ft | 447 kts | 152° |
| 2026-04-17 13:29 | 39.87201 | 20.73378 | 36882 ft | 447 kts | 152° |
| 2026-04-17 13:30 | 39.81725 | 20.77167 | 36886 ft | 445 kts | 152° |
| 2026-04-17 13:30 | 39.76290 | 20.80921 | 36888 ft | 445 kts | 152° |
| 2026-04-17 13:31 | 39.70809 | 20.84698 | 36883 ft | 445 kts | 152° |
| 2026-04-17 13:31 | 39.65325 | 20.88468 | 36884 ft | 445 kts | 152° |
| 2026-04-17 13:32 | 39.59873 | 20.92208 | 36880 ft | 446 kts | 152° |
| 2026-04-17 13:32 | 39.54367 | 20.95979 | 36892 ft | 447 kts | 152° |
| 2026-04-17 13:33 | 39.48852 | 20.99750 | 36879 ft | 447 kts | 152° |
| 2026-04-17 13:33 | 39.43363 | 21.03497 | 36889 ft | 446 kts | 152° |
| 2026-04-17 13:34 | 39.37897 | 21.07221 | 36879 ft | 447 kts | 152° |
| 2026-04-17 13:34 | 39.33264 | 21.10371 | 36878 ft | 449 kts | 152° |
| 2026-04-17 13:35 | 39.27775 | 21.14099 | 36876 ft | 449 kts | 152° |
| 2026-04-17 13:35 | 39.22214 | 21.17867 | 36876 ft | 451 kts | 152° |
| 2026-04-17 13:36 | 39.16666 | 21.21621 | 36868 ft | 451 kts | 152° |
| 2026-04-17 13:36 | 39.11087 | 21.25388 | 36867 ft | 452 kts | 152° |
| 2026-04-17 13:37 | 39.05529 | 21.29133 | 36868 ft | 451 kts | 152° |
| 2026-04-17 13:37 | 38.99964 | 21.32879 | 36861 ft | 450 kts | 152° |
| 2026-04-17 13:38 | 38.94428 | 21.36599 | 36863 ft | 450 kts | 152° |
| 2026-04-17 13:38 | 38.88869 | 21.40328 | 36856 ft | 450 kts | 152° |
| 2026-04-17 13:39 | 38.83376 | 21.44005 | 36862 ft | 448 kts | 152° |
| 2026-04-17 13:39 | 38.77825 | 21.47715 | 36862 ft | 450 kts | 152° |
| 2026-04-17 13:40 | 38.72269 | 21.51421 | 36859 ft | 449 kts | 152° |
| 2026-04-17 13:40 | 38.66715 | 21.55119 | 36862 ft | 449 kts | 152° |
| 2026-04-17 13:41 | 38.61196 | 21.58787 | 36862 ft | 450 kts | 152° |
| 2026-04-17 13:41 | 38.55639 | 21.62476 | 36856 ft | 450 kts | 152° |
| 2026-04-17 13:42 | 38.50076 | 21.66162 | 36855 ft | 450 kts | 152° |
| 2026-04-17 13:42 | 38.44517 | 21.69840 | 36856 ft | 450 kts | 152° |
| 2026-04-17 13:43 | 38.38949 | 21.73516 | 36851 ft | 450 kts | 152° |
| 2026-04-17 13:43 | 38.33420 | 21.77160 | 36850 ft | 450 kts | 152° |
| 2026-04-17 13:44 | 38.27855 | 21.80822 | 36840 ft | 448 kts | 153° |
| 2026-04-17 13:44 | 38.22323 | 21.84457 | 36843 ft | 447 kts | 153° |
| 2026-04-17 13:45 | 38.16791 | 21.88084 | 36840 ft | 447 kts | 153° |
| 2026-04-17 13:45 | 38.11255 | 21.91707 | 36840 ft | 448 kts | 153° |
| 2026-04-17 13:46 | 38.05742 | 21.95308 | 36841 ft | 448 kts | 153° |
| 2026-04-17 13:46 | 38.00201 | 21.98922 | 36836 ft | 447 kts | 153° |
| 2026-04-17 13:47 | 37.94656 | 22.02532 | 36834 ft | 447 kts | 153° |
| 2026-04-17 13:47 | 37.89115 | 22.06133 | 36827 ft | 447 kts | 153° |
| 2026-04-17 13:48 | 37.83579 | 22.09725 | 36831 ft | 447 kts | 153° |
| 2026-04-17 13:48 | 37.78072 | 22.13293 | 36831 ft | 447 kts | 152° |
| 2026-04-17 13:49 | 37.72533 | 22.16875 | 36833 ft | 447 kts | 153° |
| 2026-04-17 13:49 | 37.67000 | 22.20447 | 36835 ft | 447 kts | 153° |
| 2026-04-17 13:50 | 37.61467 | 22.24013 | 36827 ft | 447 kts | 153° |
| 2026-04-17 13:50 | 37.55960 | 22.27556 | 36823 ft | 447 kts | 153° |
| 2026-04-17 13:51 | 37.50415 | 22.31118 | 36823 ft | 447 kts | 153° |
| 2026-04-17 13:51 | 37.44876 | 22.34670 | 36829 ft | 447 kts | 153° |
| 2026-04-17 13:52 | 37.39318 | 22.38228 | 36831 ft | 447 kts | 153° |
| 2026-04-17 13:52 | 37.33793 | 22.41760 | 36821 ft | 448 kts | 153° |
| 2026-04-17 13:53 | 37.28222 | 22.45314 | 36818 ft | 448 kts | 153° |
| 2026-04-17 13:53 | 37.22660 | 22.48857 | 36836 ft | 449 kts | 153° |
| 2026-04-17 13:54 | 37.14296 | 22.54173 | 36835 ft | 449 kts | 153° |
| 2026-04-17 13:55 | 37.05952 | 22.59463 | 36827 ft | 450 kts | 153° |
| 2026-04-17 13:56 | 36.94749 | 22.66546 | 36827 ft | 450 kts | 153° |
| 2026-04-17 13:56 | 36.89192 | 22.70051 | 36828 ft | 450 kts | 153° |
| 2026-04-17 13:57 | 36.83584 | 22.73582 | 36822 ft | 450 kts | 153° |
| 2026-04-17 13:58 | 36.75174 | 22.78866 | 36826 ft | 450 kts | 153° |
| 2026-04-17 13:58 | 36.66806 | 22.84111 | 36826 ft | 450 kts | 153° |
| 2026-04-17 13:59 | 36.58382 | 22.89379 | 36821 ft | 454 kts | 154° |
| 2026-04-17 14:00 | 36.52719 | 22.92912 | 36822 ft | 455 kts | 154° |
| 2026-04-17 14:00 | 36.47046 | 22.96444 | 36823 ft | 455 kts | 154° |
| 2026-04-17 14:01 | 36.41384 | 22.99966 | 36822 ft | 455 kts | 154° |
| 2026-04-17 14:01 | 36.35748 | 23.03466 | 36821 ft | 455 kts | 154° |
| 2026-04-17 14:02 | 36.30070 | 23.06986 | 36810 ft | 455 kts | 154° |
| 2026-04-17 14:02 | 36.24404 | 23.10492 | 36811 ft | 455 kts | 154° |
| 2026-04-17 14:03 | 36.18766 | 23.13973 | 36826 ft | 455 kts | 154° |
| 2026-04-17 14:03 | 36.13099 | 23.17470 | 36822 ft | 455 kts | 154° |
| 2026-04-17 14:04 | 36.07429 | 23.20963 | 36818 ft | 454 kts | 154° |
| 2026-04-17 14:04 | 36.01764 | 23.24447 | 36816 ft | 454 kts | 154° |
| 2026-04-17 14:05 | 35.96107 | 23.27919 | 36817 ft | 454 kts | 154° |
| 2026-04-17 14:05 | 35.90484 | 23.31365 | 36816 ft | 453 kts | 154° |
| 2026-04-17 14:06 | 35.84826 | 23.34827 | 36812 ft | 453 kts | 154° |
| 2026-04-17 14:06 | 35.79172 | 23.38283 | 36811 ft | 454 kts | 155° |
| 2026-04-17 14:07 | 35.73464 | 23.41763 | 36810 ft | 460 kts | 155° |
| 2026-04-17 14:07 | 35.67716 | 23.45264 | 36807 ft | 457 kts | 154° |
| 2026-04-17 14:08 | 35.62055 | 23.48705 | 36807 ft | 456 kts | 154° |
| 2026-04-17 14:08 | 35.56356 | 23.52166 | 36805 ft | 458 kts | 155° |
| 2026-04-17 14:09 | 35.50606 | 23.55652 | 36800 ft | 461 kts | 155° |
| 2026-04-17 14:09 | 35.44881 | 23.59115 | 36798 ft | 462 kts | 155° |
| 2026-04-17 14:10 | 35.39117 | 23.62597 | 36780 ft | 463 kts | 155° |
| 2026-04-17 14:10 | 35.33370 | 23.66069 | 36786 ft | 458 kts | 155° |
| 2026-04-17 14:11 | 35.27654 | 23.69509 | 36775 ft | 462 kts | 155° |
| 2026-04-17 14:11 | 35.21905 | 23.72950 | 36774 ft | 461 kts | 156° |
| 2026-04-17 14:12 | 35.16106 | 23.76437 | 36760 ft | 464 kts | 155° |
| 2026-04-17 14:12 | 35.10334 | 23.79903 | 36761 ft | 461 kts | 155° |
| 2026-04-17 14:13 | 35.01694 | 23.85073 | 36750 ft | 464 kts | 155° |
| 2026-04-17 14:13 | 34.95884 | 23.88541 | 36738 ft | 465 kts | 155° |
| 2026-04-17 14:14 | 34.90071 | 23.92005 | 36740 ft | 464 kts | 155° |
| 2026-04-17 14:14 | 34.84271 | 23.95456 | 36738 ft | 464 kts | 155° |
| 2026-04-17 14:15 | 34.78462 | 23.98907 | 36734 ft | 464 kts | 155° |
| 2026-04-17 14:15 | 34.72675 | 24.02342 | 36733 ft | 469 kts | 156° |
| 2026-04-17 14:16 | 34.66775 | 24.05834 | 36733 ft | 470 kts | 156° |
| 2026-04-17 14:16 | 34.60882 | 24.09321 | 36730 ft | 475 kts | 157° |
| 2026-04-17 14:17 | 34.54938 | 24.12830 | 36727 ft | 474 kts | 157° |
| 2026-04-17 14:17 | 34.49003 | 24.16329 | 36721 ft | 474 kts | 157° |
| 2026-04-17 14:18 | 34.43115 | 24.19794 | 36724 ft | 473 kts | 157° |
| 2026-04-17 14:18 | 34.37187 | 24.23278 | 36722 ft | 473 kts | 157° |
| 2026-04-17 14:19 | 34.31267 | 24.26750 | 36718 ft | 472 kts | 157° |
| 2026-04-17 14:19 | 34.25344 | 24.30220 | 36717 ft | 472 kts | 157° |
| 2026-04-17 14:20 | 34.19453 | 24.33669 | 36712 ft | 467 kts | 157° |
| 2026-04-17 14:20 | 34.13628 | 24.37071 | 36713 ft | 468 kts | 157° |
| 2026-04-17 14:21 | 34.07750 | 24.40499 | 36706 ft | 471 kts | 157° |
| 2026-04-17 14:21 | 34.01863 | 24.44028 | 36705 ft | 472 kts | 152° |
| 2026-04-17 14:22 | 33.96564 | 24.48657 | 36702 ft | 477 kts | 140° |
| 2026-04-17 14:22 | 33.91598 | 24.54031 | 36674 ft | 479 kts | 141° |
| 2026-04-17 14:23 | 33.86628 | 24.59386 | 36682 ft | 480 kts | 141° |
| 2026-04-17 14:23 | 33.81640 | 24.64743 | 36682 ft | 481 kts | 141° |
| 2026-04-17 14:24 | 33.76661 | 24.70078 | 36691 ft | 482 kts | 141° |
| 2026-04-17 14:24 | 33.72487 | 24.74543 | 36697 ft | 483 kts | 141° |
| 2026-04-17 14:25 | 33.67465 | 24.79908 | 36674 ft | 481 kts | 141° |
| 2026-04-17 14:25 | 33.61636 | 24.86125 | 36677 ft | 484 kts | 142° |
| 2026-04-17 14:26 | 33.57431 | 24.90601 | 36674 ft | 484 kts | 142° |
| 2026-04-17 14:26 | 33.52395 | 24.95954 | 36675 ft | 484 kts | 142° |
| 2026-04-17 14:27 | 33.47355 | 25.01302 | 36676 ft | 484 kts | 142° |
| 2026-04-17 14:27 | 33.42327 | 25.06632 | 36647 ft | 484 kts | 143° |
| 2026-04-17 14:28 | 33.37270 | 25.11982 | 36646 ft | 485 kts | 143° |
| 2026-04-17 14:28 | 33.32210 | 25.17326 | 36644 ft | 485 kts | 143° |
| 2026-04-17 14:29 | 33.27138 | 25.22673 | 36647 ft | 486 kts | 143° |
| 2026-04-17 14:29 | 33.22095 | 25.27982 | 36637 ft | 486 kts | 143° |
| 2026-04-17 14:30 | 33.17015 | 25.33321 | 36636 ft | 487 kts | 143° |
| 2026-04-17 14:30 | 33.11918 | 25.38670 | 36641 ft | 487 kts | 143° |
| 2026-04-17 14:31 | 33.06814 | 25.44017 | 36638 ft | 488 kts | 143° |
| 2026-04-17 14:31 | 33.01731 | 25.49334 | 36619 ft | 488 kts | 143° |
| 2026-04-17 14:32 | 32.96618 | 25.54675 | 36618 ft | 489 kts | 144° |
| 2026-04-17 14:32 | 32.91503 | 25.60006 | 36621 ft | 489 kts | 144° |
| 2026-04-17 14:33 | 32.86373 | 25.65347 | 36607 ft | 490 kts | 144° |
| 2026-04-17 14:33 | 32.81235 | 25.70687 | 36621 ft | 490 kts | 144° |
| 2026-04-17 14:34 | 32.76119 | 25.75995 | 36619 ft | 490 kts | 144° |
| 2026-04-17 14:34 | 32.70975 | 25.81325 | 36616 ft | 491 kts | 144° |
| 2026-04-17 14:35 | 32.65814 | 25.86665 | 36610 ft | 491 kts | 144° |
| 2026-04-17 14:35 | 32.60660 | 25.91987 | 36604 ft | 491 kts | 144° |
| 2026-04-17 14:36 | 32.55510 | 25.97297 | 36605 ft | 490 kts | 145° |
| 2026-04-17 14:36 | 32.50385 | 26.02572 | 36601 ft | 491 kts | 145° |
| 2026-04-17 14:37 | 32.45216 | 26.07884 | 36601 ft | 491 kts | 145° |
| 2026-04-17 14:37 | 32.40080 | 26.13155 | 36601 ft | 491 kts | 145° |
| 2026-04-17 14:38 | 32.34921 | 26.18444 | 36595 ft | 490 kts | 146° |
| 2026-04-17 14:38 | 32.29756 | 26.23726 | 36596 ft | 490 kts | 146° |
| 2026-04-17 14:39 | 32.24585 | 26.29008 | 36588 ft | 490 kts | 147° |
| 2026-04-17 14:39 | 32.19420 | 26.34275 | 36592 ft | 490 kts | 147° |
| 2026-04-17 14:40 | 32.14251 | 26.39536 | 36594 ft | 491 kts | 147° |
| 2026-04-17 14:40 | 32.09104 | 26.44769 | 36598 ft | 491 kts | 147° |
| 2026-04-17 14:41 | 32.03925 | 26.50029 | 36584 ft | 491 kts | 147° |
| 2026-04-17 14:41 | 31.98743 | 26.55279 | 36594 ft | 491 kts | 147° |
| 2026-04-17 14:42 | 31.93560 | 26.60525 | 36595 ft | 491 kts | 148° |
| 2026-04-17 14:42 | 31.88369 | 26.65768 | 36603 ft | 492 kts | 148° |
| 2026-04-17 14:43 | 31.83170 | 26.71012 | 36604 ft | 492 kts | 148° |
| 2026-04-17 14:43 | 31.77963 | 26.76257 | 36607 ft | 493 kts | 148° |
| 2026-04-17 14:44 | 31.72789 | 26.81464 | 36600 ft | 493 kts | 148° |
| 2026-04-17 14:44 | 31.67576 | 26.86697 | 36607 ft | 493 kts | 148° |
| 2026-04-17 14:45 | 31.62359 | 26.91928 | 36620 ft | 493 kts | 149° |
| 2026-04-17 14:45 | 31.57128 | 26.97163 | 36625 ft | 494 kts | 149° |
| 2026-04-17 14:46 | 31.51898 | 27.02391 | 36625 ft | 494 kts | 149° |
| 2026-04-17 14:46 | 31.46672 | 27.07610 | 36616 ft | 492 kts | 149° |
| 2026-04-17 14:47 | 31.41497 | 27.12767 | 36614 ft | 493 kts | 149° |
| 2026-04-17 14:47 | 31.36254 | 27.17985 | 36616 ft | 494 kts | 149° |
| 2026-04-17 14:48 | 31.30780 | 27.22641 | 36607 ft | 480 kts | 160° |
| 2026-04-17 14:48 | 31.24907 | 27.26098 | 36622 ft | 469 kts | 166° |
| 2026-04-17 14:49 | 31.18965 | 27.29302 | 36627 ft | 470 kts | 166° |
| 2026-04-17 14:49 | 31.13034 | 27.32518 | 36588 ft | 470 kts | 166° |
| 2026-04-17 14:50 | 31.07116 | 27.35724 | 36629 ft | 469 kts | 166° |
| 2026-04-17 14:50 | 31.01227 | 27.38906 | 36637 ft | 469 kts | 166° |
| 2026-04-17 14:51 | 30.95311 | 27.42169 | 36633 ft | 474 kts | 162° |
| 2026-04-17 14:51 | 30.89712 | 27.46474 | 36641 ft | 491 kts | 151° |
| 2026-04-17 14:52 | 30.84393 | 27.51455 | 36601 ft | 488 kts | 151° |
| 2026-04-17 14:52 | 30.79085 | 27.56385 | 36639 ft | 488 kts | 152° |
| 2026-04-17 14:53 | 30.73802 | 27.61274 | 36646 ft | 488 kts | 152° |
| 2026-04-17 14:53 | 30.68486 | 27.66184 | 36646 ft | 488 kts | 152° |
| 2026-04-17 14:54 | 30.63150 | 27.71107 | 36648 ft | 488 kts | 152° |
| 2026-04-17 14:54 | 30.57869 | 27.75973 | 36648 ft | 488 kts | 152° |
| 2026-04-17 14:55 | 30.52548 | 27.80868 | 36644 ft | 487 kts | 152° |
| 2026-04-17 14:55 | 30.47229 | 27.85755 | 36650 ft | 487 kts | 152° |
| 2026-04-17 14:56 | 30.41908 | 27.90635 | 36651 ft | 487 kts | 152° |
| 2026-04-17 14:56 | 30.36586 | 27.95508 | 36665 ft | 488 kts | 152° |
| 2026-04-17 14:57 | 30.31289 | 28.00353 | 36662 ft | 488 kts | 152° |
| 2026-04-17 14:57 | 30.25959 | 28.05222 | 36659 ft | 488 kts | 152° |
| 2026-04-17 14:58 | 30.20613 | 28.10099 | 36672 ft | 487 kts | 152° |
| 2026-04-17 14:58 | 30.15281 | 28.14955 | 36673 ft | 487 kts | 152° |
| 2026-04-17 14:59 | 30.09951 | 28.19803 | 36684 ft | 487 kts | 152° |
| 2026-04-17 14:59 | 30.04651 | 28.24616 | 36685 ft | 487 kts | 152° |
| 2026-04-17 15:00 | 29.99313 | 28.29456 | 36693 ft | 487 kts | 152° |
| 2026-04-17 15:00 | 29.93976 | 28.34291 | 36694 ft | 487 kts | 152° |
| 2026-04-17 15:01 | 29.88662 | 28.39141 | 36657 ft | 490 kts | 149° |
| 2026-04-17 15:01 | 29.83906 | 28.44867 | 36682 ft | 506 kts | 136° |
| 2026-04-17 15:02 | 29.79628 | 28.51312 | 36677 ft | 507 kts | 136° |
| 2026-04-17 15:02 | 29.75329 | 28.57745 | 36689 ft | 507 kts | 136° |
| 2026-04-17 15:03 | 29.71018 | 28.64172 | 36690 ft | 507 kts | 136° |
| 2026-04-17 15:03 | 29.66703 | 28.70592 | 36696 ft | 507 kts | 136° |
| 2026-04-17 15:04 | 29.62383 | 28.77011 | 36699 ft | 507 kts | 136° |
| 2026-04-17 15:04 | 29.58059 | 28.83428 | 36709 ft | 508 kts | 136° |
| 2026-04-17 15:05 | 29.53756 | 28.89807 | 36710 ft | 508 kts | 136° |
| 2026-04-17 15:05 | 29.49419 | 28.96224 | 36672 ft | 508 kts | 137° |
| 2026-04-17 15:06 | 29.45074 | 29.02644 | 36691 ft | 509 kts | 137° |
| 2026-04-17 15:06 | 29.40382 | 29.08578 | 36703 ft | 495 kts | 148° |
| 2026-04-17 15:07 | 29.35036 | 29.13402 | 36709 ft | 487 kts | 154° |
| 2026-04-17 15:07 | 29.29655 | 29.18061 | 36713 ft | 489 kts | 153° |
| 2026-04-17 15:08 | 29.24222 | 29.22775 | 36721 ft | 490 kts | 153° |
| 2026-04-17 15:08 | 29.18780 | 29.27491 | 36727 ft | 490 kts | 153° |
| 2026-04-17 15:09 | 29.13336 | 29.32203 | 36723 ft | 489 kts | 153° |
| 2026-04-17 15:09 | 29.07887 | 29.36820 | 36724 ft | 486 kts | 155° |
| 2026-04-17 15:10 | 29.02434 | 29.41325 | 36724 ft | 486 kts | 155° |
| 2026-04-17 15:11 | 28.94203 | 29.48151 | 36725 ft | 487 kts | 154° |
| 2026-04-17 15:11 | 28.88730 | 29.52691 | 36724 ft | 486 kts | 154° |
| 2026-04-17 15:12 | 28.84170 | 29.56470 | 36692 ft | 486 kts | 155° |
| 2026-04-17 15:12 | 28.77814 | 29.61729 | 36713 ft | 486 kts | 155° |
| 2026-04-17 15:13 | 28.72335 | 29.66255 | 36717 ft | 486 kts | 155° |
| 2026-04-17 15:13 | 28.67773 | 29.70020 | 36715 ft | 487 kts | 155° |
| 2026-04-17 15:14 | 28.62278 | 29.74549 | 36729 ft | 487 kts | 155° |
| 2026-04-17 15:14 | 28.56781 | 29.79074 | 36734 ft | 488 kts | 155° |
| 2026-04-17 15:15 | 28.51280 | 29.83597 | 36704 ft | 488 kts | 155° |
| 2026-04-17 15:15 | 28.45771 | 29.88120 | 36718 ft | 489 kts | 155° |
| 2026-04-17 15:16 | 28.40248 | 29.92647 | 36729 ft | 490 kts | 155° |
| 2026-04-17 15:16 | 28.34709 | 29.97182 | 36738 ft | 491 kts | 155° |
| 2026-04-17 15:17 | 28.29194 | 30.01692 | 36746 ft | 492 kts | 155° |
| 2026-04-17 15:17 | 28.23618 | 30.06246 | 36754 ft | 493 kts | 155° |
| 2026-04-17 15:18 | 28.18053 | 30.10788 | 36738 ft | 494 kts | 155° |
| 2026-04-17 15:18 | 28.12449 | 30.15350 | 36743 ft | 495 kts | 155° |
| 2026-04-17 15:19 | 28.06861 | 30.19898 | 36741 ft | 495 kts | 155° |
| 2026-04-17 15:19 | 28.01305 | 30.24411 | 36744 ft | 495 kts | 155° |
| 2026-04-17 15:20 | 27.95710 | 30.28951 | 36746 ft | 495 kts | 155° |
| 2026-04-17 15:20 | 27.90113 | 30.33487 | 36746 ft | 495 kts | 155° |
| 2026-04-17 15:21 | 27.84507 | 30.38026 | 36728 ft | 494 kts | 156° |
| 2026-04-17 15:21 | 27.78913 | 30.42547 | 36725 ft | 494 kts | 156° |
| 2026-04-17 15:22 | 27.73345 | 30.47040 | 36732 ft | 495 kts | 156° |
| 2026-04-17 15:22 | 27.67715 | 30.51578 | 36740 ft | 496 kts | 156° |
| 2026-04-17 15:23 | 27.62090 | 30.56107 | 36744 ft | 497 kts | 156° |
| 2026-04-17 15:23 | 27.56489 | 30.60611 | 36714 ft | 497 kts | 156° |
| 2026-04-17 15:24 | 27.50849 | 30.65142 | 36740 ft | 498 kts | 156° |
| 2026-04-17 15:24 | 27.45199 | 30.69672 | 36747 ft | 499 kts | 156° |
| 2026-04-17 15:25 | 27.39533 | 30.74210 | 36762 ft | 500 kts | 156° |
| 2026-04-17 15:25 | 27.33860 | 30.78748 | 36767 ft | 501 kts | 156° |
| 2026-04-17 15:26 | 27.28182 | 30.83285 | 36751 ft | 499 kts | 156° |
| 2026-04-17 15:26 | 27.22525 | 30.87802 | 36754 ft | 499 kts | 156° |
| 2026-04-17 15:27 | 27.16834 | 30.92333 | 36753 ft | 500 kts | 156° |
| 2026-04-17 15:27 | 27.11192 | 30.96825 | 36739 ft | 500 kts | 156° |
| 2026-04-17 15:28 | 27.05526 | 31.01380 | 36751 ft | 505 kts | 153° |
| 2026-04-17 15:28 | 27.00386 | 31.06955 | 36750 ft | 525 kts | 139° |
| 2026-04-17 15:29 | 26.95793 | 31.13328 | 36748 ft | 526 kts | 138° |
| 2026-04-17 15:29 | 26.91174 | 31.19708 | 36749 ft | 526 kts | 139° |
| 2026-04-17 15:30 | 26.86548 | 31.26070 | 36740 ft | 526 kts | 139° |
| 2026-04-17 15:30 | 26.81915 | 31.32431 | 36749 ft | 526 kts | 139° |
| 2026-04-17 15:31 | 26.77309 | 31.38745 | 36748 ft | 526 kts | 139° |
| 2026-04-17 15:31 | 26.72667 | 31.45102 | 36749 ft | 527 kts | 139° |
| 2026-04-17 15:32 | 26.68023 | 31.51451 | 36754 ft | 527 kts | 139° |
| 2026-04-17 15:32 | 26.63376 | 31.57796 | 36750 ft | 527 kts | 139° |
| 2026-04-17 15:33 | 26.58727 | 31.64133 | 36740 ft | 527 kts | 139° |
| 2026-04-17 15:33 | 26.54098 | 31.70435 | 36737 ft | 527 kts | 139° |
| 2026-04-17 15:34 | 26.49439 | 31.76769 | 36717 ft | 527 kts | 139° |
| 2026-04-17 15:34 | 26.44801 | 31.83065 | 36712 ft | 527 kts | 139° |
| 2026-04-17 15:35 | 26.40141 | 31.89381 | 36736 ft | 528 kts | 139° |
| 2026-04-17 15:35 | 26.35470 | 31.95705 | 36733 ft | 528 kts | 139° |
| 2026-04-17 15:36 | 26.30786 | 32.02037 | 36734 ft | 529 kts | 139° |
| 2026-04-17 15:36 | 26.26129 | 32.08324 | 36732 ft | 529 kts | 139° |
| 2026-04-17 15:37 | 26.21433 | 32.14654 | 36732 ft | 530 kts | 139° |
| 2026-04-17 15:37 | 26.16731 | 32.20984 | 36738 ft | 531 kts | 139° |
| 2026-04-17 15:38 | 26.12021 | 32.27317 | 36688 ft | 530 kts | 139° |
| 2026-04-17 15:38 | 26.07302 | 32.33649 | 36724 ft | 532 kts | 139° |
| 2026-04-17 15:39 | 26.02599 | 32.39955 | 36724 ft | 533 kts | 139° |
| 2026-04-17 15:39 | 25.97856 | 32.46308 | 36716 ft | 533 kts | 139° |
| 2026-04-17 15:40 | 25.93118 | 32.52641 | 36712 ft | 533 kts | 139° |
| 2026-04-17 15:40 | 25.88382 | 32.58963 | 36716 ft | 532 kts | 139° |
| 2026-04-17 15:41 | 25.83642 | 32.65281 | 36716 ft | 535 kts | 139° |
| 2026-04-17 15:41 | 25.78899 | 32.71595 | 36718 ft | 534 kts | 139° |
| 2026-04-17 15:42 | 25.74225 | 32.78030 | 36722 ft | 542 kts | 133° |
| 2026-04-17 15:42 | 25.70052 | 32.85035 | 36697 ft | 545 kts | 131° |
| 2026-04-17 15:43 | 25.65871 | 32.92063 | 36440 ft | 545 kts | 131° |
| 2026-04-17 15:43 | 25.63775 | 32.95576 | 35936 ft | 546 kts | 131° |
| 2026-04-17 15:43 | 25.61677 | 32.99084 | 35310 ft | 544 kts | 131° |
| 2026-04-17 15:43 | 25.59615 | 33.02534 | 34332 ft | 544 kts | 130° |
| 2026-04-17 15:44 | 25.57529 | 33.06020 | 33474 ft | 539 kts | 130° |
| 2026-04-17 15:44 | 25.55466 | 33.09464 | 32593 ft | 533 kts | 130° |
| 2026-04-17 15:44 | 25.53417 | 33.12882 | 31789 ft | 529 kts | 130° |
| 2026-04-17 15:44 | 25.51378 | 33.16272 | 30862 ft | 530 kts | 130° |
| 2026-04-17 15:45 | 25.49335 | 33.19665 | 30130 ft | 526 kts | 130° |
| 2026-04-17 15:45 | 25.47340 | 33.22982 | 29474 ft | 519 kts | 130° |
| 2026-04-17 15:45 | 25.45346 | 33.26296 | 28815 ft | 514 kts | 130° |
| 2026-04-17 15:45 | 25.43370 | 33.29577 | 28143 ft | 510 kts | 129° |
| 2026-04-17 15:46 | 25.41407 | 33.32835 | 27479 ft | 506 kts | 129° |
| 2026-04-17 15:46 | 25.39456 | 33.36070 | 26791 ft | 503 kts | 129° |
| 2026-04-17 15:46 | 25.37518 | 33.39281 | 26096 ft | 500 kts | 129° |
| 2026-04-17 15:46 | 25.35590 | 33.42475 | 25400 ft | 498 kts | 129° |
| 2026-04-17 15:47 | 25.33814 | 33.45758 | 24741 ft | 499 kts | 119° |
| 2026-04-17 15:47 | 25.32607 | 33.49358 | 24157 ft | 499 kts | 107° |
| 2026-04-17 15:47 | 25.32048 | 33.53131 | 23606 ft | 496 kts | 94° |
| 2026-04-17 15:47 | 25.32161 | 33.56914 | 23049 ft | 491 kts | 82° |
| 2026-04-17 15:48 | 25.32923 | 33.60503 | 22420 ft | 484 kts | 69° |
| 2026-04-17 15:48 | 25.34209 | 33.63914 | 21813 ft | 477 kts | 64° |
| 2026-04-17 15:48 | 25.35531 | 33.67263 | 21206 ft | 471 kts | 67° |
| 2026-04-17 15:48 | 25.36690 | 33.70625 | 20586 ft | 463 kts | 70° |
| 2026-04-17 15:49 | 25.37691 | 33.73976 | 19735 ft | 456 kts | 72° |
| 2026-04-17 15:49 | 25.38589 | 33.77309 | 18917 ft | 448 kts | 74° |
| 2026-04-17 15:49 | 25.39427 | 33.80593 | 18271 ft | 437 kts | 75° |
| 2026-04-17 15:49 | 25.40232 | 33.83808 | 17621 ft | 428 kts | 75° |
| 2026-04-17 15:50 | 25.41006 | 33.86911 | 17040 ft | 420 kts | 75° |
| 2026-04-17 15:50 | 25.41778 | 33.90006 | 16446 ft | 413 kts | 75° |
| 2026-04-17 15:50 | 25.42536 | 33.93042 | 15863 ft | 406 kts | 75° |
| 2026-04-17 15:50 | 25.43286 | 33.96042 | 15295 ft | 400 kts | 75° |
| 2026-04-17 15:51 | 25.44019 | 33.98968 | 15051 ft | 388 kts | 75° |
| 2026-04-17 15:51 | 25.44743 | 34.01870 | 14956 ft | 396 kts | 75° |
| 2026-04-17 15:51 | 25.45477 | 34.04809 | 14854 ft | 395 kts | 76° |
| 2026-04-17 15:51 | 25.46205 | 34.07730 | 14669 ft | 393 kts | 76° |
| 2026-04-17 15:52 | 25.47095 | 34.10592 | 14202 ft | 396 kts | 63° |
| 2026-04-17 15:52 | 25.48679 | 34.13087 | 13514 ft | 399 kts | 44° |
| 2026-04-17 15:52 | 25.50840 | 34.14969 | 13104 ft | 389 kts | 32° |
| 2026-04-17 15:52 | 25.53086 | 34.16537 | 12999 ft | 376 kts | 30° |
| 2026-04-17 15:53 | 25.55330 | 34.18056 | 12896 ft | 380 kts | 30° |
| 2026-04-17 15:53 | 25.57551 | 34.19588 | 12784 ft | 381 kts | 31° |
| 2026-04-17 15:53 | 25.59782 | 34.21166 | 12381 ft | 381 kts | 31° |
| 2026-04-17 15:53 | 25.62023 | 34.22777 | 11663 ft | 386 kts | 32° |
| 2026-04-17 15:54 | 25.64283 | 34.24415 | 10721 ft | 390 kts | 32° |
| 2026-04-17 15:54 | 25.66558 | 34.26077 | 9700 ft | 391 kts | 32° |
| 2026-04-17 15:54 | 25.68785 | 34.27704 | 9381 ft | 376 kts | 32° |
| 2026-04-17 15:54 | 25.70925 | 34.29266 | 9186 ft | 358 kts | 32° |
| 2026-04-17 15:55 | 25.72931 | 34.30773 | 8983 ft | 339 kts | 39° |
| 2026-04-17 15:55 | 25.74392 | 34.32673 | 8730 ft | 322 kts | 62° |
| 2026-04-17 15:55 | 25.75091 | 34.34981 | 8164 ft | 314 kts | 86° |
| 2026-04-17 15:55 | 25.74939 | 34.37352 | 7578 ft | 306 kts | 106° |
| 2026-04-17 15:56 | 25.74323 | 34.39631 | 6993 ft | 303 kts | 112° |
| 2026-04-17 15:56 | 25.73665 | 34.41781 | 6710 ft | 290 kts | 111° |
| 2026-04-17 15:56 | 25.73078 | 34.43857 | 6567 ft | 273 kts | 110° |
| 2026-04-17 15:56 | 25.72577 | 34.45819 | 6421 ft | 256 kts | 109° |
| 2026-04-17 15:57 | 25.71951 | 34.47563 | 6274 ft | 231 kts | 132° |
| 2026-04-17 15:57 | 25.70815 | 34.48635 | 6172 ft | 202 kts | 155° |
| 2026-04-17 15:57 | 25.69622 | 34.49391 | 5788 ft | 198 kts | 155° |
| 2026-04-17 15:57 | 25.68426 | 34.50161 | 5308 ft | 198 kts | 154° |
| 2026-04-17 15:58 | 25.67248 | 34.50925 | 4901 ft | 194 kts | 154° |
| 2026-04-17 15:58 | 25.66087 | 34.51676 | 4473 ft | 191 kts | 154° |
| 2026-04-17 15:58 | 25.64946 | 34.52410 | 3950 ft | 188 kts | 153° |
| 2026-04-17 15:58 | 25.63844 | 34.53118 | 3320 ft | 184 kts | 152° |
| 2026-04-17 15:59 | 25.62723 | 34.53834 | 2557 ft | 186 kts | 151° |
| 2026-04-17 15:59 | 25.61612 | 34.54550 | 1824 ft | 182 kts | 150° |
| 2026-04-17 15:59 | 25.60550 | 34.55273 | 1228 ft | 173 kts | 148° |
| 2026-04-17 15:59 | 25.59584 | 34.55924 | 986 ft | 152 kts | 149° |
| 2026-04-17 16:00 | 25.58721 | 34.56488 | 722 ft | 137 kts | 148° |
| 2026-04-17 16:00 | 25.57920 | 34.56968 | 553 ft | 122 kts | 148° |
| 2026-04-17 16:00 | 25.57446 | 34.57271 | 421 ft | 115 kts | 147° |
| 2026-04-17 16:00 | 25.56561 | 34.57841 | 261 ft | 104 kts | 149° |
| 2026-04-17 16:01 | 25.56177 | 34.58084 | 259 ft | 37 kts | 150° |
| 2026-04-17 16:01 | 25.55968 | 34.58218 | 262 ft | 32 kts | 149° |
| 2026-04-17 16:01 | 25.55788 | 34.58335 | 261 ft | 30 kts | 150° |
| 2026-04-17 16:01 | 25.55611 | 34.58448 | 260 ft | 29 kts | 149° |
| 2026-04-17 16:02 | 25.55507 | 34.58517 | 256 ft | 15 kts | 140° |
| 2026-04-17 16:02 | 25.55509 | 34.58615 | 256 ft | 14 kts | 60° |
| 2026-04-17 16:02 | 25.55566 | 34.58724 | 253 ft | 19 kts | 60° |